createdAt,value
2017-05-15T00:00:14.317Z,13.45
2017-05-15T00:01:29.878Z,13.41
2017-05-15T00:02:44.397Z,13.36
2017-05-15T00:03:58.118Z,13.34
2017-05-15T00:05:13.505Z,13.23
2017-05-15T00:06:28.846Z,13.21
2017-05-15T00:07:41.520Z,13.23
2017-05-15T00:08:56.920Z,13.12
2017-05-15T00:10:12.269Z,13.08
2017-05-15T00:11:27.654Z,13.04
2017-05-15T00:12:43.190Z,12.97
2017-05-15T00:13:58.521Z,13.03
2017-05-15T00:15:12.767Z,13.06
2017-05-15T00:16:26.770Z,12.95
2017-05-15T00:17:42.469Z,12.88
2017-05-15T00:18:55.148Z,12.9
2017-05-15T00:20:09.301Z,12.78
2017-05-15T00:21:24.637Z,12.84
2017-05-15T00:22:40.170Z,12.78
2017-05-15T00:23:55.521Z,12.75
2017-05-15T00:25:09.583Z,12.77
2017-05-15T00:26:24.931Z,12.78
2017-05-15T00:27:39.011Z,12.72
2017-05-15T00:28:54.633Z,12.8
2017-05-15T00:30:09.972Z,12.77
2017-05-15T00:31:25.373Z,12.7
2017-05-15T00:32:40.822Z,12.66
2017-05-15T00:33:56.443Z,12.68
2017-05-15T00:35:10.539Z,12.63
2017-05-15T00:36:25.881Z,12.78
2017-05-15T00:37:41.227Z,12.66
2017-05-15T00:38:56.992Z,12.77
2017-05-15T00:40:11.952Z,12.72
2017-05-15T00:41:27.282Z,12.84
2017-05-15T00:42:43.001Z,12.74
2017-05-15T00:43:58.602Z,12.68
2017-05-15T00:45:14.010Z,12.72
2017-05-15T00:46:29.519Z,12.63
2017-05-15T00:47:44.907Z,12.64
2017-05-15T00:48:59.070Z,12.66
2017-05-15T00:50:14.061Z,12.64
2017-05-15T00:51:29.389Z,12.75
2017-05-15T00:52:44.745Z,12.7
2017-05-15T00:53:57.746Z,12.7
2017-05-15T00:55:13.115Z,12.7
2017-05-15T00:56:28.698Z,12.64
2017-05-15T00:57:41.489Z,12.62
2017-05-15T00:58:57.024Z,12.6
2017-05-15T01:00:12.362Z,12.66
2017-05-15T01:01:26.415Z,12.6
2017-05-15T01:02:40.423Z,12.56
2017-05-15T01:04:26.704Z,12.56
2017-05-15T01:05:42.084Z,12.52
2017-05-15T01:06:57.454Z,12.52
2017-05-15T01:08:11.452Z,12.41
2017-05-15T01:09:26.990Z,12.39
2017-05-15T01:10:41.070Z,12.52
2017-05-15T01:11:56.433Z,12.44
2017-05-15T01:13:10.613Z,12.38
2017-05-15T01:14:23.389Z,12.45
2017-05-15T01:15:37.671Z,12.45
2017-05-15T01:16:51.709Z,12.48
2017-05-15T01:18:07.057Z,12.39
2017-05-15T01:19:53.502Z,12.35
2017-05-15T01:21:04.970Z,12.26
2017-05-15T01:22:19.045Z,12.29
2017-05-15T01:23:31.673Z,12.29
2017-05-15T01:24:44.464Z,12.24
2017-05-15T01:26:00.036Z,12.29
2017-05-15T01:27:15.474Z,12.31
2017-05-15T01:28:29.799Z,12.29
2017-05-15T01:29:44.031Z,12.35
2017-05-15T01:30:59.631Z,12.29
2017-05-15T01:32:13.669Z,12.29
2017-05-15T01:33:29.035Z,12.34
2017-05-15T01:34:43.135Z,12.29
2017-05-15T01:35:57.482Z,12.31
2017-05-15T01:37:12.959Z,12.31
2017-05-15T01:38:25.734Z,12.26
2017-05-15T01:39:39.653Z,12.32
2017-05-15T01:40:55.031Z,12.38
2017-05-15T01:42:10.603Z,12.37
2017-05-15T01:43:26.006Z,12.39
2017-05-15T01:44:40.167Z,12.44
2017-05-15T01:45:55.738Z,12.41
2017-05-15T01:47:11.269Z,12.42
2017-05-15T01:48:26.636Z,12.42
2017-05-15T01:49:41.957Z,12.42
2017-05-15T01:50:57.295Z,12.37
2017-05-15T01:52:13.105Z,12.37
2017-05-15T01:53:27.166Z,12.34
2017-05-15T01:54:42.552Z,12.29
2017-05-15T01:55:56.470Z,12.27
2017-05-15T01:57:12.041Z,12.26
2017-05-15T01:58:27.368Z,12.31
2017-05-15T01:59:41.430Z,12.22
2017-05-15T02:00:56.782Z,12.26
2017-05-15T02:02:12.336Z,12.24
2017-05-15T02:03:27.676Z,12.31
2017-05-15T02:04:43.189Z,12.26
2017-05-15T02:05:58.532Z,12.24
2017-05-15T02:07:14.164Z,12.22
2017-05-15T02:08:29.777Z,12.31
2017-05-15T02:09:45.108Z,12.2
2017-05-15T02:10:57.864Z,12.23
2017-05-15T02:12:13.446Z,12.24
2017-05-15T02:13:28.886Z,12.13
2017-05-15T02:14:41.574Z,12.22
2017-05-15T02:15:54.376Z,12.23
2017-05-15T02:17:09.924Z,12.26
2017-05-15T02:18:24.009Z,12.31
2017-05-15T02:19:39.408Z,12.2
2017-05-15T02:20:53.453Z,12.22
2017-05-15T02:22:07.703Z,12.29
2017-05-15T02:23:23.060Z,12.23
2017-05-15T02:24:36.977Z,12.27
2017-05-15T02:25:52.551Z,12.34
2017-05-15T02:27:08.075Z,12.35
2017-05-15T02:28:23.474Z,12.39
2017-05-15T02:29:38.835Z,12.37
2017-05-15T02:30:52.749Z,12.34
2017-05-15T02:32:06.786Z,12.42
2017-05-15T02:33:21.035Z,12.41
2017-05-15T02:34:36.602Z,12.42
2017-05-15T02:35:50.650Z,12.41
2017-05-15T02:37:04.741Z,12.44
2017-05-15T02:38:18.991Z,12.42
2017-05-15T02:39:34.368Z,12.41
2017-05-15T02:40:48.044Z,12.38
2017-05-15T02:42:03.389Z,12.38
2017-05-15T02:43:18.919Z,12.39
2017-05-15T02:44:34.252Z,12.34
2017-05-15T02:45:49.639Z,12.27
2017-05-15T02:47:03.709Z,12.34
2017-05-15T02:48:19.246Z,12.24
2017-05-15T02:49:32.012Z,12.24
2017-05-15T02:50:46.060Z,12.32
2017-05-15T02:52:01.417Z,12.31
2017-05-15T02:53:15.716Z,12.2
2017-05-15T02:54:31.087Z,12.23
2017-05-15T02:55:45.157Z,12.24
2017-05-15T02:57:00.128Z,12.24
2017-05-15T02:58:15.454Z,12.32
2017-05-15T02:59:30.989Z,12.31
2017-05-15T03:00:45.065Z,12.27
2017-05-15T03:01:59.172Z,12.26
2017-05-15T03:03:14.138Z,12.24
2017-05-15T03:04:30.135Z,12.26
2017-05-15T03:05:44.186Z,12.35
2017-05-15T03:06:58.314Z,12.35
2017-05-15T03:08:13.722Z,12.34
2017-05-15T03:09:27.963Z,12.39
2017-05-15T03:10:40.733Z,12.47
2017-05-15T03:11:54.825Z,12.37
2017-05-15T03:13:10.196Z,12.34
2017-05-15T03:14:24.442Z,12.35
2017-05-15T03:15:39.812Z,12.38
2017-05-15T03:16:55.372Z,12.42
2017-05-15T03:18:09.468Z,12.38
2017-05-15T03:19:24.667Z,12.37
2017-05-15T03:20:38.715Z,12.37
2017-05-15T03:22:24.930Z,12.45
2017-05-15T03:23:40.263Z,12.48
2017-05-15T03:24:54.538Z,12.39
2017-05-15T03:26:08.239Z,12.45
2017-05-15T03:27:22.299Z,12.38
2017-05-15T03:28:37.731Z,12.38
2017-05-15T03:29:53.269Z,12.27
2017-05-15T03:31:04.736Z,12.37
2017-05-15T03:32:20.095Z,12.26
2017-05-15T03:33:34.145Z,12.22
2017-05-15T03:34:49.731Z,12.24
2017-05-15T03:36:02.529Z,12.34
2017-05-15T03:37:16.573Z,12.22
2017-05-15T03:38:32.061Z,12.24
2017-05-15T03:39:46.418Z,12.22
2017-05-15T03:41:00.553Z,12.2
2017-05-15T03:42:15.898Z,12.17
2017-05-15T03:43:29.932Z,12.26
2017-05-15T03:44:45.272Z,12.24
2017-05-15T03:45:59.599Z,12.22
2017-05-15T03:47:14.932Z,12.16
2017-05-15T03:48:27.553Z,12.23
2017-05-15T03:49:42.896Z,12.24
2017-05-15T03:50:58.497Z,12.23
2017-05-15T03:52:13.884Z,12.27
2017-05-15T03:53:29.215Z,12.26
2017-05-15T03:54:44.603Z,12.2
2017-05-15T03:56:00.150Z,12.23
2017-05-15T03:57:15.520Z,12.22
2017-05-15T03:58:29.534Z,12.15
2017-05-15T03:59:44.909Z,12.15
2017-05-15T04:01:00.481Z,12.24
2017-05-15T04:02:15.834Z,12.27
2017-05-15T04:03:31.232Z,12.27
2017-05-15T04:04:46.616Z,12.37
2017-05-15T04:05:59.455Z,12.39
2017-05-15T04:07:13.374Z,12.39
2017-05-15T04:08:28.788Z,12.39
2017-05-15T04:09:44.116Z,12.45
2017-05-15T04:10:59.701Z,12.55
2017-05-15T04:12:12.460Z,12.56
2017-05-15T04:13:27.880Z,12.56
2017-05-15T04:14:39.355Z,12.6
2017-05-15T04:15:52.039Z,12.59
2017-05-15T04:17:07.565Z,12.57
2017-05-15T04:18:20.205Z,12.62
2017-05-15T04:19:35.549Z,12.56
2017-05-15T04:20:49.464Z,12.63
2017-05-15T04:22:05.230Z,12.56
2017-05-15T04:23:20.573Z,12.72
2017-05-15T04:24:36.002Z,12.63
2017-05-15T04:25:49.920Z,12.72
2017-05-15T04:27:05.493Z,12.66
2017-05-15T04:28:20.964Z,12.64
2017-05-15T04:29:33.715Z,12.7
2017-05-15T04:30:49.093Z,12.62
2017-05-15T04:32:04.641Z,12.6
2017-05-15T04:33:18.915Z,12.6
2017-05-15T04:34:31.724Z,12.64
2017-05-15T04:36:16.726Z,12.71
2017-05-15T04:37:30.986Z,12.72
2017-05-15T04:38:46.332Z,12.71
2017-05-15T04:40:01.766Z,12.63
2017-05-15T04:41:16.045Z,12.64
2017-05-15T04:42:31.685Z,12.68
2017-05-15T04:43:44.504Z,12.63
2017-05-15T04:44:59.942Z,12.62
2017-05-15T04:46:15.279Z,12.63
2017-05-15T04:47:29.530Z,12.7
2017-05-15T04:48:43.588Z,12.72
2017-05-15T04:49:57.500Z,12.66
2017-05-15T04:51:11.613Z,12.63
2017-05-15T04:52:27.198Z,12.66
2017-05-15T04:53:41.240Z,12.64
2017-05-15T04:54:55.341Z,12.62
2017-05-15T04:56:09.467Z,12.6
2017-05-15T04:57:23.555Z,12.68
2017-05-15T04:58:37.734Z,12.66
2017-05-15T04:59:51.782Z,12.64
2017-05-15T05:01:07.139Z,12.6
2017-05-15T05:02:19.805Z,12.68
2017-05-15T05:03:32.881Z,12.57
2017-05-15T05:05:19.077Z,12.45
2017-05-15T05:06:34.472Z,12.44
2017-05-15T05:07:49.847Z,12.42
2017-05-15T05:09:05.582Z,12.45
2017-05-15T05:10:19.647Z,12.42
2017-05-15T05:11:33.616Z,12.38
2017-05-15T05:12:48.956Z,12.44
2017-05-15T05:14:04.522Z,12.45
2017-05-15T05:15:18.560Z,12.38
2017-05-15T05:16:34.011Z,12.39
2017-05-15T05:17:49.344Z,12.44
2017-05-15T05:19:03.475Z,12.48
2017-05-15T05:20:18.827Z,12.45
2017-05-15T05:21:32.788Z,12.56
2017-05-15T05:22:46.830Z,12.57
2017-05-15T05:24:00.890Z,12.63
2017-05-15T05:25:14.001Z,12.59
2017-05-15T05:26:29.388Z,12.64
2017-05-15T05:27:44.724Z,12.7
2017-05-15T05:29:00.123Z,12.75
2017-05-15T05:30:15.695Z,12.84
2017-05-15T05:31:31.033Z,12.92
2017-05-15T05:32:46.598Z,13.08
2017-05-15T05:34:00.513Z,13.06
2017-05-15T05:35:16.049Z,13.12
2017-05-15T05:36:31.428Z,13.22
2017-05-15T05:37:45.479Z,13.31
2017-05-15T05:39:00.814Z,13.44
2017-05-15T05:40:15.135Z,13.51
2017-05-15T05:41:29.185Z,13.49
2017-05-15T05:42:44.541Z,13.56
2017-05-15T05:44:00.149Z,13.61
2017-05-15T05:45:15.685Z,13.58
2017-05-15T05:46:31.038Z,13.73
2017-05-15T05:47:45.149Z,13.77
2017-05-15T05:49:00.493Z,13.85
2017-05-15T05:50:14.839Z,13.84
2017-05-15T05:51:30.408Z,13.84
2017-05-15T05:52:45.851Z,13.89
2017-05-15T05:53:58.347Z,13.89
2017-05-15T05:55:12.836Z,13.91
2017-05-15T05:56:28.209Z,13.86
2017-05-15T05:57:43.571Z,13.92
2017-05-15T05:58:58.914Z,13.88
2017-05-15T06:00:14.463Z,13.89
2017-05-15T06:01:30.051Z,14.02
2017-05-15T06:02:42.753Z,14.02
2017-05-15T06:03:58.094Z,14
2017-05-15T06:05:12.414Z,14.04
2017-05-15T06:06:26.544Z,14.09
2017-05-15T06:07:39.221Z,14.21
2017-05-15T06:08:53.588Z,14.21
2017-05-15T06:10:09.151Z,14.26
2017-05-15T06:11:24.737Z,14.29
2017-05-15T06:12:36.116Z,14.37
2017-05-15T06:13:51.464Z,14.43
2017-05-15T06:15:06.855Z,14.51
2017-05-15T06:16:22.407Z,14.56
2017-05-15T06:17:37.752Z,14.54
2017-05-15T06:18:53.111Z,14.43
2017-05-15T06:20:08.672Z,14.54
2017-05-15T06:21:23.041Z,14.39
2017-05-15T06:22:38.377Z,14.32
2017-05-15T06:23:53.955Z,14.4
2017-05-15T06:25:08.018Z,14.4
2017-05-15T06:26:23.620Z,14.29
2017-05-15T06:27:38.959Z,14.21
2017-05-15T06:28:53.043Z,14.28
2017-05-15T06:30:08.416Z,14.22
2017-05-15T06:31:22.544Z,14.18
2017-05-15T06:32:37.525Z,14.09
2017-05-15T06:33:50.168Z,14.11
2017-05-15T06:35:05.193Z,14.11
2017-05-15T06:36:20.734Z,14.06
2017-05-15T06:37:36.191Z,14.02
2017-05-15T06:38:51.529Z,13.86
2017-05-15T06:40:04.293Z,13.96
2017-05-15T06:41:19.831Z,13.96
2017-05-15T06:42:35.241Z,13.89
2017-05-15T06:43:50.620Z,13.85
2017-05-15T06:45:04.751Z,13.88
2017-05-15T06:46:20.331Z,13.85
2017-05-15T06:47:35.680Z,13.81
2017-05-15T06:48:51.043Z,13.84
2017-05-15T06:50:06.398Z,13.81
2017-05-15T06:51:22.024Z,13.82
2017-05-15T06:52:37.369Z,13.84
2017-05-15T06:53:51.434Z,13.86
2017-05-15T06:55:05.503Z,13.82
2017-05-15T06:56:21.072Z,14
2017-05-15T06:57:33.827Z,13.88
2017-05-15T06:58:49.237Z,13.88
2017-05-15T07:00:03.361Z,13.88
2017-05-15T07:01:18.717Z,13.89
2017-05-15T07:02:32.991Z,13.94
2017-05-15T07:03:44.467Z,13.99
2017-05-15T07:04:58.526Z,14
2017-05-15T07:06:13.893Z,14.02
2017-05-15T07:07:29.516Z,13.94
2017-05-15T07:08:43.635Z,13.86
2017-05-15T07:09:57.697Z,13.84
2017-05-15T07:11:11.858Z,13.82
2017-05-15T07:12:26.019Z,13.82
2017-05-15T07:13:39.946Z,13.81
2017-05-15T07:14:55.332Z,13.77
2017-05-15T07:16:07.993Z,13.76
2017-05-15T07:17:23.349Z,13.76
2017-05-15T07:18:39.052Z,13.74
2017-05-15T07:19:53.126Z,13.71
2017-05-15T07:21:07.223Z,13.82
2017-05-15T07:22:21.432Z,13.81
2017-05-15T07:23:37.158Z,13.82
2017-05-15T07:24:51.344Z,13.81
2017-05-15T07:26:06.682Z,13.86
2017-05-15T07:27:22.044Z,13.84
2017-05-15T07:28:37.674Z,13.82
2017-05-15T07:29:52.691Z,13.96
2017-05-15T07:31:08.028Z,13.86
2017-05-15T07:32:23.381Z,13.96
2017-05-15T07:33:37.752Z,13.91
2017-05-15T07:34:53.099Z,13.82
2017-05-15T07:36:07.208Z,13.88
2017-05-15T07:37:22.560Z,13.92
2017-05-15T07:38:38.179Z,13.89
2017-05-15T07:39:52.341Z,13.91
2017-05-15T07:41:07.682Z,13.95
2017-05-15T07:42:23.130Z,13.99
2017-05-15T07:43:37.541Z,14.02
2017-05-15T07:44:51.680Z,14.02
2017-05-15T07:46:07.023Z,14.06
2017-05-15T07:47:22.364Z,14.04
2017-05-15T07:48:37.985Z,14.18
2017-05-15T07:49:52.092Z,14.16
2017-05-15T07:51:07.435Z,14.16
2017-05-15T07:52:21.486Z,14.22
2017-05-15T07:53:37.084Z,14.37
2017-05-15T07:54:49.859Z,14.52
2017-05-15T07:56:03.961Z,14.54
2017-05-15T07:57:19.319Z,14.72
2017-05-15T07:58:34.675Z,14.81
2017-05-15T07:59:50.213Z,14.88
2017-05-15T08:01:05.581Z,15.02
2017-05-15T08:02:20.964Z,15.18
2017-05-15T08:03:36.378Z,15.25
2017-05-15T08:04:52.072Z,15.4
2017-05-15T08:06:07.486Z,15.42
2017-05-15T08:07:22.832Z,15.48
2017-05-15T08:08:38.299Z,15.55
2017-05-15T08:09:52.614Z,15.68
2017-05-15T08:11:07.951Z,15.78
2017-05-15T08:12:23.523Z,15.94
2017-05-15T08:13:38.937Z,15.94
2017-05-15T08:14:53.141Z,16.1
2017-05-15T08:16:08.481Z,16.16
2017-05-15T08:17:23.827Z,16.29
2017-05-15T08:18:37.806Z,16.44
2017-05-15T08:19:53.346Z,16.39
2017-05-15T08:21:07.398Z,16.49
2017-05-15T08:22:20.176Z,16.68
2017-05-15T08:23:35.527Z,16.72
2017-05-15T08:24:49.710Z,16.74
2017-05-15T08:26:03.767Z,16.68
2017-05-15T08:27:17.816Z,16.72
2017-05-15T08:28:33.157Z,16.64
2017-05-15T08:29:47.417Z,16.65
2017-05-15T08:31:02.817Z,16.66
2017-05-15T08:32:16.906Z,16.59
2017-05-15T08:33:32.253Z,16.53
2017-05-15T08:34:46.316Z,16.71
2017-05-15T08:36:01.952Z,16.66
2017-05-15T08:37:17.318Z,16.66
2017-05-15T08:38:32.651Z,17.01
2017-05-15T08:39:48.051Z,17.16
2017-05-15T08:41:03.876Z,17.46
2017-05-15T08:42:19.231Z,17.91
2017-05-15T08:43:34.716Z,18.2
2017-05-15T08:44:50.061Z,18.94
2017-05-15T08:46:04.383Z,19.49
2017-05-15T08:47:18.450Z,19.61
2017-05-15T08:48:33.895Z,20.03
2017-05-15T08:49:49.305Z,20.67
2017-05-15T08:51:04.943Z,20.83
2017-05-15T08:52:20.300Z,21.2
2017-05-15T08:53:34.038Z,21.22
2017-05-15T08:54:47.093Z,21.78
2017-05-15T08:56:03.260Z,22.27
2017-05-15T08:57:18.597Z,22.68
2017-05-15T08:58:32.528Z,22.55
2017-05-15T08:59:46.657Z,23.01
2017-05-15T09:01:02.093Z,23.2
2017-05-15T09:02:17.657Z,23.36
2017-05-15T09:03:33.048Z,23.63
2017-05-15T09:04:45.860Z,23.76
2017-05-15T09:06:01.479Z,24.1
2017-05-15T09:07:16.825Z,24.34
2017-05-15T09:08:31.909Z,24.31
2017-05-15T09:09:47.321Z,24.28
2017-05-15T09:11:02.879Z,24.22
2017-05-15T09:12:18.223Z,24.57
2017-05-15T09:13:33.940Z,24.75
2017-05-15T09:14:48.034Z,24.92
2017-05-15T09:16:02.258Z,25.06
2017-05-15T09:17:16.445Z,25.18
2017-05-15T09:18:29.231Z,25.46
2017-05-15T09:19:40.602Z,25.73
2017-05-15T09:20:54.678Z,25.78
2017-05-15T09:22:09.898Z,26.18
2017-05-15T09:23:25.251Z,26.55
2017-05-15T09:24:40.632Z,27.01
2017-05-15T09:25:54.741Z,27.26
2017-05-15T09:27:09.051Z,26.58
2017-05-15T09:28:24.430Z,26.21
2017-05-15T09:29:37.213Z,25.52
2017-05-15T09:30:52.571Z,25.1
2017-05-15T09:32:06.887Z,24.72
2017-05-15T09:33:20.972Z,24.63
2017-05-15T09:34:36.347Z,24.22
2017-05-15T09:35:50.446Z,24
2017-05-15T09:37:05.859Z,23.42
2017-05-15T09:38:20.276Z,23.11
2017-05-15T09:39:35.637Z,23.33
2017-05-15T09:40:50.997Z,23.68
2017-05-15T09:42:06.384Z,23.94
2017-05-15T09:43:22.210Z,24.28
2017-05-15T09:44:36.285Z,24.78
2017-05-15T09:45:51.663Z,25.12
2017-05-15T09:47:05.764Z,25.4
2017-05-15T09:48:21.337Z,25.05
2017-05-15T09:49:36.726Z,24.47
2017-05-15T09:50:52.082Z,24.55
2017-05-15T09:52:07.527Z,24.94
2017-05-15T09:53:23.106Z,25.06
2017-05-15T09:54:35.757Z,25.09
2017-05-15T09:55:51.207Z,25.27
2017-05-15T09:57:03.973Z,25.73
2017-05-15T09:58:19.632Z,25.94
2017-05-15T09:59:32.505Z,26.27
2017-05-15T10:00:46.634Z,26.48
2017-05-15T10:02:02.016Z,26.77
2017-05-15T10:03:17.571Z,26.98
2017-05-15T10:04:32.950Z,27.14
2017-05-15T10:05:48.406Z,26.95
2017-05-15T10:07:02.489Z,26.98
2017-05-15T10:08:18.129Z,26.99
2017-05-15T10:09:33.504Z,27.14
2017-05-15T10:10:48.870Z,27.07
2017-05-15T10:12:02.998Z,26.89
2017-05-15T10:13:17.343Z,26.71
2017-05-15T10:14:32.722Z,26.58
2017-05-15T10:15:48.114Z,26.56
2017-05-15T10:17:03.718Z,26.39
2017-05-15T10:18:16.556Z,26.3
2017-05-15T10:19:32.106Z,25.92
2017-05-15T10:20:47.521Z,25.71
2017-05-15T10:22:02.902Z,25.61
2017-05-15T10:23:18.288Z,25.47
2017-05-15T10:24:33.900Z,25.42
2017-05-15T10:25:46.571Z,25.46
2017-05-15T10:27:01.976Z,25.34
2017-05-15T10:28:17.389Z,25.42
2017-05-15T10:29:32.980Z,25.39
2017-05-15T10:30:48.357Z,25.39
2017-05-15T10:32:03.712Z,25.12
2017-05-15T10:33:17.825Z,24.65
2017-05-15T10:34:33.468Z,24.5
2017-05-15T10:35:48.878Z,24.19
2017-05-15T10:37:03.934Z,24.12
2017-05-15T10:38:15.576Z,24.22
2017-05-15T10:39:29.928Z,24.44
2017-05-15T10:40:45.291Z,24.43
2017-05-15T10:42:00.710Z,24.5
2017-05-15T10:43:15.751Z,24.6
2017-05-15T10:44:30.043Z,24.63
2017-05-15T10:45:45.417Z,24.87
2017-05-15T10:47:00.787Z,25.1
2017-05-15T10:48:13.670Z,25.13
2017-05-15T10:49:29.235Z,25.28
2017-05-15T10:50:44.259Z,25.47
2017-05-15T10:51:59.693Z,25.49
2017-05-15T10:53:15.102Z,25.42
2017-05-15T10:54:28.104Z,25.37
2017-05-15T10:55:43.469Z,25.34
2017-05-15T10:56:57.580Z,25.29
2017-05-15T10:58:11.590Z,25.44
2017-05-15T10:59:26.949Z,25.37
2017-05-15T11:00:42.581Z,25.39
2017-05-15T11:01:58.099Z,25.39
2017-05-15T11:03:13.558Z,25.37
2017-05-15T11:04:28.952Z,25.36
2017-05-15T11:05:41.879Z,25.27
2017-05-15T11:06:57.262Z,25.36
2017-05-15T11:08:11.362Z,25.37
2017-05-15T11:09:24.099Z,25.66
2017-05-15T11:10:38.038Z,25.69
2017-05-15T11:11:50.707Z,25.71
2017-05-15T11:13:04.864Z,25.36
2017-05-15T11:14:20.009Z,25.36
2017-05-15T11:15:33.976Z,25.27
2017-05-15T11:16:49.340Z,25.15
2017-05-15T11:18:04.806Z,25.09
2017-05-15T11:19:20.179Z,25.22
2017-05-15T11:20:35.955Z,25.27
2017-05-15T11:21:51.326Z,25.34
2017-05-15T11:23:06.694Z,25.34
2017-05-15T11:24:22.057Z,25.37
2017-05-15T11:25:36.437Z,25.36
2017-05-15T11:26:52.036Z,25.32
2017-05-15T11:28:06.150Z,25.25
2017-05-15T11:29:21.523Z,25.13
2017-05-15T11:30:35.809Z,25.25
2017-05-15T11:31:49.778Z,25.31
2017-05-15T11:33:05.271Z,25.42
2017-05-15T11:34:20.641Z,25.36
2017-05-15T11:35:36.268Z,25.43
2017-05-15T11:36:50.479Z,25.39
2017-05-15T11:38:04.603Z,25.4
2017-05-15T11:39:20.004Z,25.27
2017-05-15T11:40:35.400Z,25.25
2017-05-15T11:41:51.028Z,25.19
2017-05-15T11:43:05.276Z,25.22
2017-05-15T11:44:20.685Z,25.19
2017-05-15T11:45:34.678Z,25.09
2017-05-15T11:46:48.951Z,25.09
2017-05-15T11:48:04.360Z,25.21
2017-05-15T11:49:19.783Z,25.43
2017-05-15T11:50:35.159Z,25.49
2017-05-15T11:51:50.852Z,25.61
2017-05-15T11:53:06.500Z,25.69
2017-05-15T11:54:20.716Z,25.77
2017-05-15T11:55:34.881Z,25.88
2017-05-15T11:56:49.186Z,25.92
2017-05-15T11:58:04.564Z,25.88
2017-05-15T11:59:18.514Z,25.81
2017-05-15T12:00:33.886Z,25.73
2017-05-15T12:01:49.556Z,25.52
2017-05-15T12:03:04.917Z,25.46
2017-05-15T12:04:19.084Z,25.44
2017-05-15T12:05:34.461Z,25.49
2017-05-15T12:07:21.027Z,25.58
2017-05-15T12:08:36.406Z,25.5
2017-05-15T12:09:50.495Z,25.42
2017-05-15T12:11:05.880Z,25.27
2017-05-15T12:12:21.509Z,25.13
2017-05-15T12:13:36.505Z,25.22
2017-05-15T12:14:51.879Z,25.24
2017-05-15T12:16:07.253Z,25.07
2017-05-15T12:17:21.475Z,24.97
2017-05-15T12:18:37.082Z,24.99
2017-05-15T12:19:52.474Z,25.12
2017-05-15T12:21:06.562Z,25.06
2017-05-15T12:22:22.151Z,25.07
2017-05-15T12:23:37.578Z,24.95
2017-05-15T12:24:52.951Z,24.75
2017-05-15T12:26:08.354Z,24.73
2017-05-15T12:27:22.668Z,24.84
2017-05-15T12:28:38.063Z,24.63
2017-05-15T12:29:53.459Z,24.44
2017-05-15T12:31:08.825Z,24.44
2017-05-15T12:32:21.885Z,24.34
2017-05-15T12:33:37.356Z,24.2
2017-05-15T12:34:51.434Z,24.02
2017-05-15T12:36:05.527Z,24.01
2017-05-15T12:37:20.920Z,23.94
2017-05-15T12:38:36.563Z,23.94
2017-05-15T12:39:51.960Z,23.85
2017-05-15T12:41:07.362Z,23.79
2017-05-15T12:42:22.810Z,23.72
2017-05-15T12:43:37.143Z,23.68
2017-05-15T12:44:52.757Z,23.58
2017-05-15T12:46:08.241Z,23.39
2017-05-15T12:47:23.695Z,23.39
2017-05-15T12:48:39.413Z,23.24
2017-05-15T12:49:54.782Z,23.21
2017-05-15T12:51:10.773Z,23.05
2017-05-15T12:52:26.180Z,23.03
2017-05-15T12:53:41.801Z,23.01
2017-05-15T12:54:57.180Z,22.9
2017-05-15T12:56:12.891Z,22.71
2017-05-15T12:57:28.325Z,22.53
2017-05-15T12:58:44.130Z,22.43
2017-05-15T12:59:59.504Z,22.42
2017-05-15T13:01:14.870Z,22.28
2017-05-15T13:02:30.250Z,22.23
2017-05-15T13:03:46.304Z,22.24
2017-05-15T13:05:00.430Z,22.24
2017-05-15T13:06:14.532Z,22.12
2017-05-15T13:07:28.659Z,22.2
2017-05-15T13:08:44.269Z,22.01
2017-05-15T13:09:59.642Z,22.01
2017-05-15T13:11:15.133Z,22.03
2017-05-15T13:12:30.559Z,21.81
2017-05-15T13:13:46.226Z,21.66
2017-05-15T13:15:01.741Z,21.58
2017-05-15T13:16:17.129Z,21.61
2017-05-15T13:17:32.539Z,21.64
2017-05-15T13:18:48.163Z,21.69
2017-05-15T13:20:02.335Z,21.75
2017-05-15T13:21:18.165Z,21.76
2017-05-15T13:22:33.574Z,21.75
2017-05-15T13:23:47.945Z,21.65
2017-05-15T13:25:03.338Z,21.58
2017-05-15T13:26:18.748Z,21.56
2017-05-15T13:27:34.115Z,21.54
2017-05-15T13:28:49.734Z,21.4
2017-05-15T13:30:05.398Z,21.45
2017-05-15T13:31:20.769Z,21.33
2017-05-15T13:32:36.213Z,21.3
2017-05-15T13:33:51.845Z,21.31
2017-05-15T13:35:05.559Z,21.31
2017-05-15T13:36:21.032Z,21.19
2017-05-15T13:37:36.404Z,21.23
2017-05-15T13:38:52.082Z,21.12
2017-05-15T13:40:07.467Z,21.09
2017-05-15T13:41:22.893Z,21.08
2017-05-15T13:42:38.260Z,21.13
2017-05-15T13:43:51.274Z,21.19
2017-05-15T13:45:06.653Z,21.22
2017-05-15T13:46:22.120Z,21.23
2017-05-15T13:47:37.519Z,21.18
2017-05-15T13:48:53.089Z,21.2
2017-05-15T13:50:07.197Z,21.18
2017-05-15T13:51:22.666Z,21.1
2017-05-15T13:52:38.118Z,21.06
2017-05-15T13:53:53.777Z,21.09
2017-05-15T13:55:07.866Z,21.12
2017-05-15T13:56:23.290Z,21.08
2017-05-15T13:57:37.399Z,21.06
2017-05-15T13:58:52.987Z,21.1
2017-05-15T14:00:08.410Z,20.96
2017-05-15T14:01:23.788Z,20.94
2017-05-15T14:02:39.185Z,20.96
2017-05-15T14:03:54.845Z,20.97
2017-05-15T14:05:08.950Z,20.98
2017-05-15T14:06:24.353Z,20.96
2017-05-15T14:07:39.795Z,20.96
2017-05-15T14:08:55.486Z,20.86
2017-05-15T14:10:10.508Z,20.79
2017-05-15T14:11:25.936Z,20.78
2017-05-15T14:12:41.323Z,20.88
2017-05-15T14:13:57.004Z,20.86
2017-05-15T14:15:09.919Z,20.85
2017-05-15T14:16:24.914Z,20.86
2017-05-15T14:17:40.369Z,20.85
2017-05-15T14:18:55.952Z,20.83
2017-05-15T14:20:11.436Z,20.86
2017-05-15T14:21:27.152Z,20.83
2017-05-15T14:22:42.579Z,20.85
2017-05-15T14:23:56.918Z,20.82
2017-05-15T14:25:12.557Z,20.85
2017-05-15T14:26:28.174Z,20.86
2017-05-15T14:27:43.632Z,20.88
2017-05-15T14:28:57.877Z,20.96
2017-05-15T14:30:12.937Z,20.88
2017-05-15T14:31:28.327Z,21
2017-05-15T14:32:43.753Z,20.93
2017-05-15T14:33:56.555Z,20.83
2017-05-15T14:35:09.609Z,20.75
2017-05-15T14:36:25.040Z,20.78
2017-05-15T14:37:40.422Z,20.73
2017-05-15T14:38:55.910Z,20.79
2017-05-15T14:40:10.268Z,20.79
2017-05-15T14:41:25.647Z,20.76
2017-05-15T14:42:41.281Z,20.72
2017-05-15T14:43:53.941Z,20.73
2017-05-15T14:45:09.556Z,20.67
2017-05-15T14:46:24.979Z,20.51
2017-05-15T14:47:40.361Z,20.46
2017-05-15T14:48:53.194Z,20.43
2017-05-15T14:50:08.818Z,20.53
2017-05-15T14:51:24.222Z,20.45
2017-05-15T14:52:39.594Z,20.41
2017-05-15T14:53:55.249Z,20.42
2017-05-15T14:55:08.139Z,20.41
2017-05-15T14:56:23.164Z,20.41
2017-05-15T14:57:38.580Z,20.46
2017-05-15T14:58:53.952Z,20.39
2017-05-15T15:00:08.234Z,20.39
2017-05-15T15:01:22.302Z,20.36
2017-05-15T15:02:37.743Z,20.26
2017-05-15T15:03:51.694Z,20.26
2017-05-15T15:05:06.070Z,20.21
2017-05-15T15:06:21.120Z,20.16
2017-05-15T15:07:36.743Z,20.2
2017-05-15T15:08:52.146Z,20.27
2017-05-15T15:10:07.820Z,20.07
2017-05-15T15:11:21.944Z,20.03
2017-05-15T15:12:36.958Z,20.04
2017-05-15T15:13:51.179Z,19.92
2017-05-15T15:15:06.870Z,20.04
2017-05-15T15:16:22.493Z,19.98
2017-05-15T15:17:35.368Z,19.97
2017-05-15T15:18:48.156Z,19.92
2017-05-15T15:20:03.238Z,19.92
2017-05-15T15:21:18.446Z,19.92
2017-05-15T15:22:33.879Z,19.92
2017-05-15T15:23:48.218Z,19.86
2017-05-15T15:25:03.605Z,19.88
2017-05-15T15:26:19.043Z,19.8
2017-05-15T15:27:34.094Z,19.89
2017-05-15T15:28:48.196Z,19.92
2017-05-15T15:30:03.601Z,19.97
2017-05-15T15:31:19.243Z,19.98
2017-05-15T15:32:32.023Z,20.05
2017-05-15T15:33:46.333Z,20
2017-05-15T15:35:01.715Z,20.04
2017-05-15T15:36:17.360Z,20.11
2017-05-15T15:37:31.456Z,20.05
2017-05-15T15:38:47.076Z,20.14
2017-05-15T15:40:01.030Z,20.23
2017-05-15T15:41:16.439Z,20.24
2017-05-15T15:42:32.056Z,20.24
2017-05-15T15:43:47.422Z,20.14
2017-05-15T15:45:02.788Z,20.07
2017-05-15T15:46:18.155Z,20.21
2017-05-15T15:47:34.004Z,20.26
2017-05-15T15:48:49.359Z,20.36
2017-05-15T15:50:04.741Z,20.26
2017-05-15T15:51:18.892Z,20.3
2017-05-15T15:52:33.143Z,20.28
2017-05-15T15:53:47.209Z,20.34
2017-05-15T15:55:02.577Z,20.3
2017-05-15T15:56:17.948Z,20.3
2017-05-15T15:57:30.970Z,20.36
2017-05-15T15:58:46.348Z,20.46
2017-05-15T16:00:01.749Z,20.53
2017-05-15T16:01:17.349Z,20.66
2017-05-15T16:02:32.998Z,20.79
2017-05-15T16:03:48.370Z,20.78
2017-05-15T16:05:03.373Z,20.85
2017-05-15T16:06:17.340Z,20.79
2017-05-15T16:07:32.749Z,20.73
2017-05-15T16:08:48.110Z,20.73